createdAt,value
2017-04-15T00:00:48.013Z,76.60
2017-04-15T00:01:47.719Z,76.70
2017-04-15T00:02:47.369Z,76.70
2017-04-15T00:03:47.132Z,76.00
2017-04-15T00:04:46.805Z,75.80
2017-04-15T00:05:46.473Z,75.80
2017-04-15T00:06:46.251Z,75.20
2017-04-15T00:07:45.956Z,75.50
2017-04-15T00:08:45.713Z,75.20
2017-04-15T00:09:45.390Z,75.70
2017-04-15T00:10:45.094Z,75.20
2017-04-15T00:11:44.805Z,75.40
2017-04-15T00:12:44.577Z,76.10
2017-04-15T00:13:44.245Z,75.50
2017-04-15T00:14:43.948Z,75.40
2017-04-15T00:15:43.647Z,75.70
2017-04-15T00:16:43.387Z,75.70
2017-04-15T00:17:43.786Z,75.20
2017-04-15T00:18:43.468Z,75.80
2017-04-15T00:19:43.132Z,75.70
2017-04-15T00:20:42.823Z,75.60
2017-04-15T00:21:42.497Z,75.00
2017-04-15T00:22:42.186Z,74.90
2017-04-15T00:23:41.844Z,74.50
2017-04-15T00:24:41.539Z,74.10
2017-04-15T00:25:41.285Z,74.50
2017-04-15T00:26:41.008Z,75.60
2017-04-15T00:27:40.678Z,75.70
2017-04-15T00:28:41.076Z,75.60
2017-04-15T00:29:40.771Z,75.20
2017-04-15T00:30:40.489Z,75.00
2017-04-15T00:31:40.163Z,75.10
2017-04-15T00:32:39.889Z,75.30
2017-04-15T00:33:39.569Z,75.40
2017-04-15T00:34:39.242Z,75.80
2017-04-15T00:35:38.912Z,76.90
2017-04-15T00:36:38.629Z,77.10
2017-04-15T00:37:38.272Z,77.20
2017-04-15T00:38:38.101Z,77.10
2017-04-15T00:39:52.378Z,77.10
2017-04-15T00:40:52.118Z,77.30
2017-04-15T00:41:51.846Z,77.00
2017-04-15T00:42:51.493Z,76.80
2017-04-15T00:43:51.147Z,76.80
2017-04-15T00:44:50.815Z,76.80
2017-04-15T00:45:50.531Z,76.80
2017-04-15T00:46:50.172Z,77.10
2017-04-15T00:47:49.932Z,76.70
2017-04-15T00:48:49.600Z,77.00
2017-04-15T00:49:49.278Z,77.40
2017-04-15T00:50:48.949Z,77.00
2017-04-15T00:51:48.612Z,77.20
2017-04-15T00:52:48.303Z,77.30
2017-04-15T00:53:47.999Z,77.40
2017-04-15T00:54:47.699Z,77.60
2017-04-15T00:55:47.375Z,77.60
2017-04-15T00:56:47.015Z,77.60
2017-04-15T00:57:46.696Z,77.50
2017-04-15T00:58:46.327Z,77.50
2017-04-15T00:59:46.038Z,77.40
2017-04-15T01:00:45.713Z,76.70
2017-04-15T01:01:45.397Z,77.10
2017-04-15T01:02:45.179Z,77.10
2017-04-15T01:03:44.874Z,77.10
2017-04-15T01:04:44.553Z,77.00
2017-04-15T01:05:44.297Z,77.30
2017-04-15T01:06:44.720Z,77.60
2017-04-15T01:07:44.381Z,77.90
2017-04-15T01:08:44.072Z,78.40
2017-04-15T01:09:43.735Z,77.80
2017-04-15T01:10:43.484Z,78.00
2017-04-15T01:11:43.203Z,78.00
2017-04-15T01:12:42.908Z,78.20
2017-04-15T01:13:42.684Z,79.30
2017-04-15T01:14:42.347Z,79.80
2017-04-15T01:15:42.016Z,79.40
2017-04-15T01:16:41.670Z,79.30
2017-04-15T01:17:41.410Z,79.30
2017-04-15T01:18:41.107Z,78.90
2017-04-15T01:19:40.871Z,78.70
2017-04-15T01:20:40.564Z,77.90
2017-04-15T01:21:40.299Z,77.60
2017-04-15T01:22:40.719Z,78.60
2017-04-15T01:23:40.457Z,78.10
2017-04-15T01:24:40.127Z,77.90
2017-04-15T01:25:39.820Z,77.50
2017-04-15T01:26:39.574Z,77.30
2017-04-15T01:27:39.242Z,77.30
2017-04-15T01:28:38.905Z,77.10
2017-04-15T01:29:38.665Z,77.70
2017-04-15T01:30:38.393Z,77.60
2017-04-15T01:31:38.052Z,77.20
2017-04-15T01:32:37.765Z,77.00
2017-04-15T01:33:37.451Z,77.10
2017-04-15T01:34:37.109Z,77.20
2017-04-15T01:35:36.845Z,76.50
2017-04-15T01:36:36.564Z,76.30
2017-04-15T01:37:36.358Z,76.70
2017-04-15T01:38:36.021Z,76.40
2017-04-15T01:39:35.757Z,76.60
2017-04-15T01:40:36.248Z,76.30
2017-04-15T01:41:35.942Z,77.00
2017-04-15T01:42:35.610Z,75.90
2017-04-15T01:43:36.024Z,76.30
2017-04-15T01:44:35.788Z,76.10
2017-04-15T01:45:36.231Z,76.30
2017-04-15T01:46:35.920Z,76.40
2017-04-15T01:47:35.615Z,76.30
2017-04-15T01:48:35.277Z,76.50
2017-04-15T01:49:34.903Z,76.10
2017-04-15T01:50:34.614Z,76.10
2017-04-15T01:51:34.312Z,75.50
2017-04-15T01:52:33.970Z,75.80
2017-04-15T01:53:33.767Z,75.80
2017-04-15T01:54:33.504Z,76.00
2017-04-15T01:55:33.192Z,75.70
2017-04-15T01:56:32.847Z,76.50
2017-04-15T01:57:32.540Z,77.90
2017-04-15T01:58:32.283Z,77.50
2017-04-15T01:59:31.928Z,79.20
2017-04-15T02:00:31.573Z,78.00
2017-04-15T02:01:31.963Z,78.00
2017-04-15T02:02:31.628Z,77.60
2017-04-15T02:03:31.330Z,78.90
2017-04-15T02:04:30.991Z,78.60
2017-04-15T02:05:30.687Z,78.70
2017-04-15T02:06:30.381Z,78.50
2017-04-15T02:07:30.065Z,78.20
2017-04-15T02:08:29.765Z,78.50
2017-04-15T02:09:29.489Z,77.80
2017-04-15T02:10:29.183Z,78.60
2017-04-15T02:11:28.829Z,77.90
2017-04-15T02:12:28.483Z,78.70
2017-04-15T02:13:28.265Z,79.20
2017-04-15T02:14:28.776Z,78.50
2017-04-15T02:15:28.496Z,79.20
2017-04-15T02:16:28.191Z,80.70
2017-04-15T02:17:27.903Z,79.90
2017-04-15T02:18:27.550Z,81.10
2017-04-15T02:19:27.261Z,79.70
2017-04-15T02:20:26.972Z,79.60
2017-04-15T02:21:27.512Z,79.30
2017-04-15T02:22:27.169Z,79.30
2017-04-15T02:23:26.870Z,79.60
2017-04-15T02:24:26.604Z,78.70
2017-04-15T02:25:26.290Z,78.30
2017-04-15T02:26:25.955Z,77.70
2017-04-15T02:27:25.653Z,77.60
2017-04-15T02:28:25.308Z,76.90
2017-04-15T02:29:24.981Z,76.50
2017-04-15T02:30:24.653Z,77.10
2017-04-15T02:31:24.296Z,77.20
2017-04-15T02:32:24.070Z,76.70
2017-04-15T02:33:23.754Z,76.80
2017-04-15T02:34:23.412Z,76.40
2017-04-15T02:35:23.091Z,76.20
2017-04-15T02:36:22.741Z,76.10
2017-04-15T02:37:22.409Z,75.80
2017-04-15T02:38:22.074Z,76.10
2017-04-15T02:39:21.779Z,77.30
2017-04-15T02:40:21.435Z,76.10
2017-04-15T02:41:21.096Z,75.60
2017-04-15T02:42:20.790Z,75.60
2017-04-15T02:43:20.415Z,75.80
2017-04-15T02:44:20.051Z,75.90
2017-04-15T02:45:19.862Z,75.70
2017-04-15T02:46:19.642Z,75.60
2017-04-15T02:47:20.022Z,75.80
2017-04-15T02:48:19.685Z,75.60
2017-04-15T02:49:19.352Z,75.80
2017-04-15T02:50:19.006Z,75.50
2017-04-15T02:51:18.712Z,75.70
2017-04-15T02:52:18.546Z,76.20
2017-04-15T02:53:18.246Z,75.80
2017-04-15T02:54:17.938Z,75.80
2017-04-15T02:55:18.355Z,75.80
2017-04-15T02:56:18.093Z,75.20
2017-04-15T02:57:17.722Z,75.50
2017-04-15T02:58:17.382Z,74.60
2017-04-15T02:59:17.024Z,74.60
2017-04-15T03:00:16.801Z,74.50
2017-04-15T03:01:16.534Z,76.00
2017-04-15T03:02:16.225Z,75.70
2017-04-15T03:03:15.896Z,74.60
2017-04-15T03:04:15.645Z,74.50
2017-04-15T03:05:16.096Z,74.90
2017-04-15T03:06:15.811Z,74.40
2017-04-15T03:07:15.460Z,74.70
2017-04-15T03:08:15.158Z,75.30
2017-04-15T03:09:14.829Z,74.90
2017-04-15T03:10:14.504Z,74.50
2017-04-15T03:11:14.249Z,74.10
2017-04-15T03:12:14.635Z,74.00
2017-04-15T03:13:14.301Z,73.60
2017-04-15T03:14:14.061Z,74.70
2017-04-15T03:15:13.819Z,74.00
2017-04-15T03:16:13.457Z,74.50
2017-04-15T03:17:13.145Z,74.90
2017-04-15T03:18:12.856Z,74.80
2017-04-15T03:19:12.541Z,74.60
2017-04-15T03:20:12.273Z,74.50
2017-04-15T03:21:11.946Z,74.60
2017-04-15T03:22:11.630Z,74.30
2017-04-15T03:23:11.286Z,74.40
2017-04-15T03:24:10.943Z,74.30
2017-04-15T03:25:11.337Z,74.10
2017-04-15T03:26:11.054Z,74.10
2017-04-15T03:27:10.757Z,74.10
2017-04-15T03:28:10.373Z,74.00
2017-04-15T03:29:10.051Z,74.10
2017-04-15T03:30:09.720Z,73.80
2017-04-15T03:31:09.398Z,73.70
2017-04-15T03:32:09.109Z,73.70
2017-04-15T03:33:08.842Z,73.70
2017-04-15T03:34:08.520Z,73.70
2017-04-15T03:35:08.250Z,73.70
2017-04-15T03:36:07.908Z,73.00
2017-04-15T03:37:07.611Z,72.80
2017-04-15T03:38:07.336Z,73.10
2017-04-15T03:39:06.998Z,73.10
2017-04-15T03:40:06.732Z,72.80
2017-04-15T03:41:06.374Z,72.70
2017-04-15T03:42:06.034Z,73.00
2017-04-15T03:43:05.708Z,73.30
2017-04-15T03:44:05.421Z,73.40
2017-04-15T03:45:05.109Z,73.00
2017-04-15T03:46:04.807Z,73.00
2017-04-15T03:47:04.496Z,73.40
2017-04-15T03:48:04.217Z,73.70
2017-04-15T03:49:03.924Z,73.20
2017-04-15T03:50:03.613Z,73.80
2017-04-15T03:51:03.362Z,73.70
2017-04-15T03:52:03.010Z,73.60
2017-04-15T03:53:02.665Z,73.60
2017-04-15T03:54:02.312Z,73.70
2017-04-15T03:55:01.975Z,74.20
2017-04-15T03:56:01.689Z,73.70
2017-04-15T03:57:01.354Z,73.70
2017-04-15T03:58:01.025Z,73.90
2017-04-15T03:59:00.722Z,74.20
2017-04-15T04:00:00.595Z,74.40
2017-04-15T04:01:00.262Z,74.00
2017-04-15T04:01:59.949Z,74.20
2017-04-15T04:02:59.694Z,74.10
2017-04-15T04:04:00.132Z,73.80
2017-04-15T04:04:59.817Z,73.90
2017-04-15T04:05:59.470Z,73.70
2017-04-15T04:06:59.163Z,73.80
2017-04-15T04:07:58.916Z,73.80
2017-04-15T04:08:58.699Z,73.30
2017-04-15T04:09:58.408Z,73.30
2017-04-15T04:10:58.079Z,73.80
2017-04-15T04:11:57.733Z,73.20
2017-04-15T04:12:57.397Z,72.90
2017-04-15T04:13:57.113Z,73.10
2017-04-15T04:14:56.796Z,73.10
2017-04-15T04:15:56.522Z,73.10
2017-04-15T04:16:56.204Z,73.20
2017-04-15T04:17:55.856Z,73.80
2017-04-15T04:18:55.537Z,73.80
2017-04-15T04:19:55.528Z,73.60
2017-04-15T04:20:55.173Z,73.70
2017-04-15T04:21:55.587Z,73.40
2017-04-15T04:22:56.115Z,73.70
2017-04-15T04:23:55.769Z,73.80
2017-04-15T04:24:55.513Z,73.80
2017-04-15T04:25:55.133Z,73.80
2017-04-15T04:26:54.908Z,73.80
2017-04-15T04:27:54.576Z,73.80
2017-04-15T04:28:54.232Z,73.80
2017-04-15T04:29:53.847Z,73.40
2017-04-15T04:30:53.536Z,73.80
2017-04-15T04:31:53.189Z,73.80
2017-04-15T04:32:52.864Z,73.80
2017-04-15T04:33:52.581Z,73.80
2017-04-15T04:34:52.318Z,73.80
2017-04-15T04:35:52.035Z,73.80
2017-04-15T04:36:51.819Z,73.80
2017-04-15T04:37:52.264Z,73.90
2017-04-15T04:38:52.006Z,74.10
2017-04-15T04:39:51.698Z,74.40
2017-04-15T04:40:51.408Z,74.50
2017-04-15T04:41:51.106Z,74.30
2017-04-15T04:42:50.854Z,74.40
2017-04-15T04:43:50.513Z,74.10
2017-04-15T04:44:50.168Z,74.80
2017-04-15T04:45:49.846Z,74.80
2017-04-15T04:46:49.553Z,74.90
2017-04-15T04:47:49.208Z,74.90
2017-04-15T04:48:48.933Z,75.10
2017-04-15T04:49:48.596Z,74.80
2017-04-15T04:50:48.271Z,74.90
2017-04-15T04:51:47.930Z,75.00
2017-04-15T04:52:47.542Z,74.70
2017-04-15T04:53:47.204Z,74.30
2017-04-15T04:54:46.900Z,74.20
2017-04-15T04:55:46.673Z,74.20
2017-04-15T04:56:46.353Z,74.70
2017-04-15T04:57:46.029Z,74.60
2017-04-15T04:58:45.656Z,74.50
2017-04-15T04:59:45.300Z,74.20
2017-04-15T05:00:45.127Z,74.10
2017-04-15T05:01:44.861Z,73.80
2017-04-15T05:02:45.258Z,74.40
2017-04-15T05:03:45.011Z,75.00
2017-04-15T05:04:44.779Z,74.70
2017-04-15T05:05:44.483Z,74.60
2017-04-15T05:06:44.160Z,74.30
2017-04-15T05:07:43.834Z,74.20
2017-04-15T05:08:43.506Z,73.80
2017-04-15T05:09:43.171Z,73.30
2017-04-15T05:10:42.811Z,73.20
2017-04-15T05:11:42.764Z,73.50
2017-04-15T05:12:42.453Z,73.30
2017-04-15T05:13:42.112Z,72.70
2017-04-15T05:14:41.786Z,72.00
2017-04-15T05:15:41.583Z,72.50
2017-04-15T05:16:41.284Z,72.30
2017-04-15T05:17:41.019Z,71.90
2017-04-15T05:18:40.701Z,71.80
2017-04-15T05:19:40.361Z,72.10
2017-04-15T05:20:40.066Z,71.20
2017-04-15T05:21:39.853Z,71.40
2017-04-15T05:22:40.298Z,71.30
2017-04-15T05:23:40.047Z,71.80
2017-04-15T05:24:39.767Z,71.50
2017-04-15T05:25:39.456Z,71.60
2017-04-15T05:26:39.164Z,71.20
2017-04-15T05:27:38.814Z,72.10
2017-04-15T05:28:38.521Z,71.80
2017-04-15T05:29:38.212Z,71.40
2017-04-15T05:30:37.895Z,71.10
2017-04-15T05:31:37.570Z,70.90
2017-04-15T05:32:37.220Z,70.70
2017-04-15T05:33:36.899Z,70.80
2017-04-15T05:34:36.636Z,70.70
2017-04-15T05:35:36.316Z,70.10
2017-04-15T05:36:35.977Z,69.20
2017-04-15T05:37:35.747Z,69.80
2017-04-15T05:38:35.462Z,69.70
2017-04-15T05:39:35.164Z,69.40
2017-04-15T05:40:34.877Z,69.40
2017-04-15T05:41:34.543Z,69.40
2017-04-15T05:42:34.162Z,69.50
2017-04-15T05:43:33.833Z,67.30
2017-04-15T05:44:33.496Z,67.50
2017-04-15T05:45:33.187Z,67.90
2017-04-15T05:46:32.980Z,67.10
2017-04-15T05:47:32.664Z,67.70
2017-04-15T05:48:32.314Z,67.30
2017-04-15T05:49:31.967Z,65.80
2017-04-15T05:50:31.598Z,65.20
2017-04-15T05:51:31.262Z,65.10
2017-04-15T05:52:30.972Z,64.50
2017-04-15T05:53:30.652Z,64.10
2017-04-15T05:54:30.309Z,62.90
2017-04-15T05:55:29.974Z,61.40
2017-04-15T05:56:29.703Z,60.10
2017-04-15T05:57:29.368Z,58.60
2017-04-15T05:58:29.111Z,58.70
2017-04-15T05:59:28.790Z,57.80
2017-04-15T06:00:28.499Z,56.20
2017-04-15T06:01:28.219Z,55.00
2017-04-15T06:02:27.889Z,54.70
2017-04-15T06:03:27.567Z,54.60
2017-04-15T06:04:27.277Z,54.90
2017-04-15T06:05:26.943Z,54.80
2017-04-15T06:06:26.564Z,55.10
2017-04-15T06:07:26.336Z,55.00
2017-04-15T06:08:26.090Z,54.80
2017-04-15T06:09:25.755Z,55.60
2017-04-15T06:10:25.439Z,55.20
2017-04-15T06:11:25.076Z,55.70
2017-04-15T06:12:24.751Z,57.50
2017-04-15T06:13:24.474Z,57.20
2017-04-15T06:14:24.876Z,56.20
2017-04-15T06:15:24.587Z,56.50
2017-04-15T06:16:24.307Z,56.30
2017-04-15T06:17:24.019Z,57.00
2017-04-15T06:18:23.653Z,57.00
2017-04-15T06:19:23.318Z,57.20
2017-04-15T06:20:22.957Z,57.00
2017-04-15T06:21:22.634Z,57.30
2017-04-15T06:22:22.361Z,58.30
2017-04-15T06:23:22.009Z,57.80
2017-04-15T06:24:21.645Z,58.10
2017-04-15T06:25:21.316Z,57.80
2017-04-15T06:26:20.968Z,58.10
2017-04-15T06:27:20.615Z,58.50
2017-04-15T06:28:20.329Z,59.20
2017-04-15T06:29:20.010Z,59.40
2017-04-15T06:30:19.673Z,58.80
2017-04-15T06:31:19.325Z,58.60
2017-04-15T06:32:19.080Z,58.20
2017-04-15T06:33:18.740Z,58.60
2017-04-15T06:34:18.424Z,59.10
2017-04-15T06:35:18.100Z,59.20
2017-04-15T06:36:17.778Z,60.70
2017-04-15T06:37:17.467Z,59.70
2017-04-15T06:38:17.154Z,60.20
2017-04-15T06:39:16.801Z,60.70
2017-04-15T06:40:16.631Z,60.30
2017-04-15T06:41:16.308Z,60.70
2017-04-15T06:42:15.965Z,60.50
2017-04-15T06:43:15.604Z,61.10
2017-04-15T06:44:15.257Z,60.50
2017-04-15T06:45:14.917Z,60.80
2017-04-15T06:46:14.634Z,60.80
2017-04-15T06:47:14.315Z,60.30
2017-04-15T06:48:14.023Z,60.50
2017-04-15T06:49:13.781Z,60.70
2017-04-15T06:50:13.490Z,60.70
2017-04-15T06:51:13.144Z,59.80
2017-04-15T06:52:12.828Z,59.60
2017-04-15T06:53:12.464Z,59.40
2017-04-15T06:54:12.539Z,59.10
2017-04-15T06:55:12.202Z,58.50
2017-04-15T06:56:11.849Z,58.70
2017-04-15T06:57:11.491Z,58.40
2017-04-15T06:58:11.212Z,58.40
2017-04-15T06:59:10.887Z,58.40
2017-04-15T07:00:10.536Z,59.00
2017-04-15T07:01:10.219Z,58.30
2017-04-15T07:02:09.874Z,58.30
2017-04-15T07:03:09.563Z,58.20
2017-04-15T07:04:09.250Z,58.00
2017-04-15T07:05:08.995Z,58.40
2017-04-15T07:06:08.638Z,58.90
2017-04-15T07:07:08.333Z,58.70
2017-04-15T07:08:08.089Z,58.30
2017-04-15T07:09:07.754Z,58.30
2017-04-15T07:10:07.547Z,58.40
2017-04-15T07:11:07.214Z,58.70
2017-04-15T07:12:06.888Z,58.90
2017-04-15T07:13:06.572Z,59.00
2017-04-15T07:14:06.232Z,58.40
2017-04-15T07:15:05.944Z,57.80
2017-04-15T07:16:05.643Z,57.60
2017-04-15T07:17:05.293Z,56.70
2017-04-15T07:18:05.043Z,58.00
2017-04-15T07:19:04.693Z,57.50
2017-04-15T07:20:04.360Z,56.60
2017-04-15T07:21:04.065Z,56.10
2017-04-15T07:22:04.501Z,56.10
2017-04-15T07:23:04.170Z,56.00
2017-04-15T07:24:03.854Z,56.60
2017-04-15T07:25:03.580Z,55.90
2017-04-15T07:26:03.288Z,55.20
2017-04-15T07:27:02.993Z,54.80
2017-04-15T07:28:02.728Z,54.90
2017-04-15T07:29:02.420Z,54.90
2017-04-15T07:30:02.087Z,54.90
2017-04-15T07:31:01.831Z,54.50
2017-04-15T07:32:01.504Z,54.30
2017-04-15T07:33:01.183Z,53.30
2017-04-15T07:34:00.888Z,53.10
2017-04-15T07:35:00.568Z,52.80
2017-04-15T07:36:00.245Z,53.10
2017-04-15T07:36:59.901Z,52.20
2017-04-15T07:37:59.620Z,51.90
2017-04-15T07:38:59.329Z,52.60
2017-04-15T07:39:59.045Z,52.10
2017-04-15T07:40:58.721Z,51.10
2017-04-15T07:41:58.398Z,51.20
2017-04-15T07:42:58.064Z,51.20
2017-04-15T07:43:57.757Z,50.20
2017-04-15T07:44:57.404Z,51.10
2017-04-15T07:45:57.216Z,50.30
2017-04-15T07:46:56.877Z,50.40
2017-04-15T07:47:56.540Z,50.20
2017-04-15T07:48:56.180Z,50.30
2017-04-15T07:49:55.848Z,49.60
2017-04-15T07:50:55.488Z,49.50
2017-04-15T07:51:55.186Z,49.40
2017-04-15T07:52:54.840Z,48.70
2017-04-15T07:53:54.511Z,49.70
2017-04-15T07:54:54.166Z,48.90
2017-04-15T07:55:53.820Z,48.40
2017-04-15T07:56:53.479Z,49.70
2017-04-15T07:57:53.177Z,49.00
2017-04-15T07:58:52.810Z,49.40
2017-04-15T07:59:53.198Z,49.40
2017-04-15T08:00:52.889Z,48.10
2017-04-15T08:01:52.515Z,47.40
2017-04-15T08:02:52.163Z,48.00
2017-04-15T08:03:51.851Z,46.70
2017-04-15T08:04:51.494Z,47.10
2017-04-15T08:05:51.164Z,47.30
2017-04-15T08:06:50.823Z,48.70
2017-04-15T08:07:50.472Z,47.70
2017-04-15T08:08:50.181Z,48.10
2017-04-15T08:09:49.916Z,46.40
2017-04-15T08:10:49.695Z,47.30
2017-04-15T08:11:50.095Z,47.00
2017-04-15T08:12:49.763Z,47.20
2017-04-15T08:13:49.387Z,48.50
2017-04-15T08:14:49.053Z,47.10
2017-04-15T08:15:48.747Z,46.40
2017-04-15T08:16:48.503Z,45.00
2017-04-15T08:17:48.159Z,44.70
2017-04-15T08:18:47.883Z,43.70
2017-04-15T08:19:47.551Z,43.50
2017-04-15T08:20:47.180Z,44.20
2017-04-15T08:21:46.893Z,42.30
2017-04-15T08:22:46.571Z,42.50
2017-04-15T08:23:46.221Z,41.60
2017-04-15T08:24:45.891Z,42.40
2017-04-15T08:25:45.534Z,42.00
2017-04-15T08:26:45.280Z,42.30
2017-04-15T08:27:45.018Z,42.40
2017-04-15T08:28:44.659Z,41.60
2017-04-15T08:29:44.306Z,41.80
2017-04-15T08:30:43.971Z,41.00
2017-04-15T08:31:43.616Z,40.30
2017-04-15T08:32:43.311Z,39.50
2017-04-15T08:33:43.065Z,39.70
2017-04-15T08:34:42.707Z,40.00
2017-04-15T08:35:42.332Z,39.00
2017-04-15T08:36:42.058Z,39.20
2017-04-15T08:37:42.444Z,39.20
2017-04-15T08:38:42.079Z,38.10
2017-04-15T08:39:42.073Z,37.20
2017-04-15T08:40:42.463Z,37.30
2017-04-15T08:41:42.164Z,37.70
2017-04-15T08:42:41.834Z,37.30
2017-04-15T08:43:41.585Z,37.80
2017-04-15T08:44:41.299Z,37.50
2017-04-15T08:45:41.070Z,38.40
2017-04-15T08:46:40.732Z,37.80
2017-04-15T08:47:40.480Z,37.60
2017-04-15T08:48:40.115Z,39.20
2017-04-15T08:49:39.785Z,39.00
2017-04-15T08:50:39.497Z,38.20
2017-04-15T08:51:39.144Z,37.80
2017-04-15T08:52:38.825Z,37.60
2017-04-15T08:53:38.571Z,36.00
2017-04-15T08:54:38.223Z,36.20
2017-04-15T08:55:37.853Z,36.60
2017-04-15T08:56:37.520Z,37.50
2017-04-15T08:57:37.143Z,36.40
2017-04-15T08:58:36.767Z,36.30
2017-04-15T08:59:36.385Z,38.20
2017-04-15T09:00:36.010Z,37.40
2017-04-15T09:01:35.685Z,37.10
2017-04-15T09:02:35.446Z,35.30
2017-04-15T09:03:35.077Z,36.10
2017-04-15T09:04:35.125Z,35.20
2017-04-15T09:05:34.764Z,35.90
2017-04-15T09:06:34.390Z,35.50
2017-04-15T09:07:34.018Z,35.20
2017-04-15T09:08:33.889Z,35.60
2017-04-15T09:09:33.518Z,35.20
2017-04-15T09:10:33.134Z,36.10
2017-04-15T09:11:32.757Z,38.80
2017-04-15T09:12:32.401Z,37.00
2017-04-15T09:13:32.062Z,38.80
2017-04-15T09:14:31.776Z,39.30
2017-04-15T09:15:31.414Z,37.20
2017-04-15T09:16:31.788Z,38.00
2017-04-15T09:17:31.472Z,37.50
2017-04-15T09:18:31.162Z,37.20
2017-04-15T09:19:30.903Z,36.80
2017-04-15T09:20:30.580Z,36.90
2017-04-15T09:21:30.212Z,36.40
2017-04-15T09:22:29.844Z,37.10
2017-04-15T09:23:29.456Z,36.80
2017-04-15T09:24:29.115Z,36.80
2017-04-15T09:25:28.813Z,36.10
2017-04-15T09:26:28.497Z,35.60
2017-04-15T09:27:28.149Z,35.80
2017-04-15T09:28:27.790Z,37.30
2017-04-15T09:29:27.504Z,37.80
2017-04-15T09:30:27.201Z,37.20
2017-04-15T09:31:26.806Z,37.70
2017-04-15T09:32:26.516Z,37.40
2017-04-15T09:33:26.208Z,37.10
2017-04-15T09:34:25.854Z,37.00
2017-04-15T09:35:25.593Z,37.10
2017-04-15T09:36:25.276Z,38.50
2017-04-15T09:37:25.041Z,37.60
2017-04-15T09:38:25.016Z,37.40
2017-04-15T09:39:24.673Z,37.10
2017-04-15T09:40:25.207Z,36.70
2017-04-15T09:41:24.831Z,36.10
2017-04-15T09:42:24.457Z,35.80
2017-04-15T09:43:24.116Z,36.20
2017-04-15T09:44:23.793Z,35.00
2017-04-15T09:45:23.498Z,34.50
2017-04-15T09:46:23.128Z,35.30
2017-04-15T09:47:22.753Z,35.30
2017-04-15T09:48:22.422Z,35.00
2017-04-15T09:49:22.065Z,35.50
2017-04-15T09:50:21.767Z,35.00
2017-04-15T09:51:21.428Z,36.30
2017-04-15T09:52:21.180Z,35.40
2017-04-15T09:53:20.817Z,35.40
2017-04-15T09:54:20.475Z,34.40
2017-04-15T09:55:20.119Z,33.20
2017-04-15T09:56:19.776Z,35.00
2017-04-15T09:57:19.410Z,34.60
2017-04-15T09:58:19.788Z,33.60
2017-04-15T09:59:19.424Z,34.20
2017-04-15T10:00:19.052Z,34.40
2017-04-15T10:01:18.695Z,33.50
2017-04-15T10:02:18.398Z,34.80
2017-04-15T10:03:18.487Z,35.40
2017-04-15T10:04:18.107Z,33.30
2017-04-15T10:05:17.733Z,33.50
2017-04-15T10:06:17.574Z,36.10
2017-04-15T10:07:17.232Z,35.50
2017-04-15T10:08:16.919Z,36.10
2017-04-15T10:09:16.558Z,34.90
2017-04-15T10:10:16.184Z,36.40
2017-04-15T10:11:15.865Z,37.10
2017-04-15T10:12:15.511Z,35.40
2017-04-15T10:13:15.148Z,35.00
2017-04-15T10:14:15.617Z,35.30
2017-04-15T10:15:15.254Z,34.60
2017-04-15T10:16:14.901Z,33.80
2017-04-15T10:17:14.531Z,33.70
2017-04-15T10:18:14.260Z,34.50
2017-04-15T10:19:14.640Z,34.60
2017-04-15T10:20:14.487Z,34.80
2017-04-15T10:21:14.138Z,35.20
2017-04-15T10:22:13.792Z,35.70
2017-04-15T10:23:13.432Z,35.20
2017-04-15T10:24:13.140Z,35.20
2017-04-15T10:25:12.793Z,36.30
2017-04-15T10:26:12.489Z,34.90
2017-04-15T10:27:12.096Z,34.20
2017-04-15T10:28:11.742Z,34.50
2017-04-15T10:29:11.453Z,35.00
2017-04-15T10:30:11.088Z,35.40
2017-04-15T10:31:10.720Z,35.10
2017-04-15T10:32:10.404Z,35.10
2017-04-15T10:33:10.066Z,35.40
2017-04-15T10:34:09.716Z,35.00
2017-04-15T10:35:09.330Z,34.00
2017-04-15T10:36:09.704Z,36.00
2017-04-15T10:37:09.370Z,35.90
2017-04-15T10:38:09.138Z,35.80
2017-04-15T10:39:08.756Z,36.80
2017-04-15T10:40:08.420Z,35.50
2017-04-15T10:41:08.079Z,35.90
2017-04-15T10:42:07.698Z,36.30
2017-04-15T10:43:07.335Z,35.20
2017-04-15T10:44:07.021Z,35.70
2017-04-15T10:45:06.684Z,34.90
2017-04-15T10:46:06.319Z,35.20
2017-04-15T10:47:05.940Z,35.30
2017-04-15T10:48:05.609Z,35.40
2017-04-15T10:49:05.317Z,35.50
2017-04-15T10:50:04.991Z,34.40
2017-04-15T10:51:04.625Z,34.10
2017-04-15T10:52:04.294Z,34.50
2017-04-15T10:53:03.921Z,35.00
2017-04-15T10:54:03.577Z,34.30
2017-04-15T10:55:03.217Z,34.40
2017-04-15T10:56:02.888Z,35.50
2017-04-15T10:57:02.597Z,34.60
2017-04-15T10:58:02.250Z,33.90
2017-04-15T10:59:01.954Z,34.20
2017-04-15T11:00:01.596Z,34.30
2017-04-15T11:01:01.315Z,34.20
2017-04-15T11:02:01.001Z,33.40
2017-04-15T11:03:00.652Z,33.80
2017-04-15T11:04:00.266Z,33.30
2017-04-15T11:04:59.904Z,33.20
2017-04-15T11:06:00.277Z,34.70
2017-04-15T11:06:59.988Z,33.30
2017-04-15T11:07:59.690Z,33.80
2017-04-15T11:08:59.387Z,34.50
2017-04-15T11:09:59.740Z,33.80
2017-04-15T11:10:59.407Z,34.70
2017-04-15T11:11:59.039Z,34.60
2017-04-15T11:12:58.671Z,34.10
2017-04-15T11:13:58.337Z,33.50
2017-04-15T11:14:57.978Z,33.90
2017-04-15T11:15:57.612Z,34.30
2017-04-15T11:16:57.235Z,34.20
2017-04-15T11:17:56.903Z,34.90
2017-04-15T11:18:56.539Z,35.40
2017-04-15T11:19:56.304Z,35.90
2017-04-15T11:20:55.997Z,34.90
2017-04-15T11:21:55.627Z,35.60
2017-04-15T11:22:55.296Z,37.40
2017-04-15T11:23:54.927Z,36.40
2017-04-15T11:24:54.662Z,34.40
2017-04-15T11:25:54.383Z,34.70
2017-04-15T11:26:54.018Z,34.70
2017-04-15T11:27:53.643Z,35.20
2017-04-15T11:28:53.277Z,35.10
2017-04-15T11:29:52.905Z,34.10
2017-04-15T11:30:52.654Z,33.90
2017-04-15T11:31:52.293Z,34.70
2017-04-15T11:32:52.450Z,33.60
2017-04-15T11:33:52.068Z,34.40
2017-04-15T11:34:51.696Z,33.60
2017-04-15T11:35:51.369Z,33.70
2017-04-15T11:36:51.028Z,33.70
2017-04-15T11:37:50.706Z,34.30
2017-04-15T11:38:50.334Z,34.70
2017-04-15T11:39:50.727Z,33.50
2017-04-15T11:40:50.450Z,34.30
2017-04-15T11:41:50.100Z,34.40
2017-04-15T11:42:49.742Z,34.10
2017-04-15T11:43:49.399Z,34.40
2017-04-15T11:44:49.016Z,33.40
2017-04-15T11:45:48.741Z,34.70
2017-04-15T11:46:48.377Z,34.70
2017-04-15T11:47:48.018Z,34.90
2017-04-15T11:48:47.645Z,35.10
2017-04-15T11:49:47.312Z,35.00
2017-04-15T11:50:46.952Z,35.00
2017-04-15T11:51:46.610Z,35.10
2017-04-15T11:52:46.249Z,34.80
2017-04-15T11:53:45.975Z,34.70
2017-04-15T11:54:45.705Z,35.30
2017-04-15T11:55:45.389Z,34.90
2017-04-15T11:56:45.016Z,35.00
2017-04-15T11:57:44.644Z,34.90
2017-04-15T11:58:44.272Z,35.20
2017-04-15T11:59:43.913Z,35.80
2017-04-15T12:00:43.540Z,34.40
2017-04-15T12:01:43.927Z,34.20
2017-04-15T12:02:43.560Z,33.80
2017-04-15T12:03:43.213Z,34.20
2017-04-15T12:04:42.838Z,35.00
2017-04-15T12:05:42.455Z,33.30
2017-04-15T12:06:42.083Z,34.10
2017-04-15T12:07:41.744Z,34.30
2017-04-15T12:08:41.493Z,33.50
2017-04-15T12:09:41.131Z,33.30
2017-04-15T12:10:40.836Z,34.30
2017-04-15T12:11:40.464Z,33.80
2017-04-15T12:12:40.084Z,33.00
2017-04-15T12:13:39.751Z,33.60
2017-04-15T12:14:39.384Z,33.00
2017-04-15T12:15:39.078Z,32.80
2017-04-15T12:16:38.770Z,33.60
2017-04-15T12:17:38.711Z,32.80
2017-04-15T12:18:38.333Z,32.90
2017-04-15T12:19:38.000Z,33.50
2017-04-15T12:20:37.747Z,33.40
2017-04-15T12:21:37.368Z,34.20
2017-04-15T12:22:37.727Z,33.20
2017-04-15T12:23:37.365Z,34.30
2017-04-15T12:24:37.005Z,34.60
2017-04-15T12:25:36.707Z,35.90
2017-04-15T12:26:36.419Z,35.10
2017-04-15T12:27:36.044Z,35.40
2017-04-15T12:28:35.767Z,34.60
2017-04-15T12:29:35.469Z,35.00
2017-04-15T12:30:35.093Z,35.60
2017-04-15T12:31:34.884Z,35.40
2017-04-15T12:32:35.050Z,36.10
2017-04-15T12:33:34.768Z,34.90
2017-04-15T12:34:34.380Z,35.80
2017-04-15T12:35:34.018Z,35.50
2017-04-15T12:36:33.668Z,35.50
2017-04-15T12:37:33.348Z,35.70
2017-04-15T12:38:33.031Z,35.30
2017-04-15T12:39:32.664Z,35.00
2017-04-15T12:40:32.284Z,35.20
2017-04-15T12:41:31.915Z,34.10
2017-04-15T12:42:31.537Z,34.80
2017-04-15T12:43:31.945Z,34.80
2017-04-15T12:44:31.571Z,34.90
2017-04-15T12:45:31.208Z,35.90
2017-04-15T12:46:30.848Z,34.60
2017-04-15T12:47:30.499Z,34.60
2017-04-15T12:48:30.169Z,36.20
2017-04-15T12:49:29.853Z,35.80